createdAt,value
2023-01-26T01:39:42.938Z,505.00
2023-01-26T01:40:43.013Z,508.00
2023-01-26T01:41:43.032Z,507.00
2023-01-26T01:42:43.081Z,505.00
2023-01-26T01:43:43.141Z,501.00
2023-01-26T01:44:44.086Z,504.00
2023-01-26T01:45:43.226Z,504.00
2023-01-26T01:46:43.287Z,506.00
2023-01-26T01:47:43.321Z,510.00
2023-01-26T01:48:43.383Z,506.00
2023-01-26T01:49:43.437Z,506.00
2023-01-26T01:50:43.472Z,505.00
2023-01-26T01:51:43.520Z,510.00
2023-01-26T01:52:43.535Z,505.00
2023-01-26T01:53:43.556Z,506.00
2023-01-26T01:54:43.630Z,501.00
2023-01-26T01:55:43.630Z,500.00
2023-01-26T01:56:43.692Z,507.00
2023-01-26T01:57:43.753Z,502.00
2023-01-26T01:58:43.785Z,510.00
2023-01-26T01:59:43.845Z,512.00
2023-01-26T02:00:43.960Z,508.00
2023-01-26T02:01:43.973Z,510.00
2023-01-26T02:02:43.992Z,508.00
2023-01-26T02:03:44.095Z,504.00
2023-01-26T02:04:44.091Z,512.00
2023-01-26T02:05:44.152Z,505.00
2023-01-26T02:06:44.199Z,510.00
2023-01-26T02:07:45.014Z,510.00
2023-01-26T02:08:44.315Z,503.00
2023-01-26T02:09:44.383Z,512.00
2023-01-26T02:10:44.429Z,508.00
2023-01-26T02:11:44.474Z,511.00
2023-01-26T02:12:44.555Z,506.00
2023-01-26T02:13:44.591Z,503.00
2023-01-26T02:14:44.635Z,506.00
2023-01-26T02:15:44.701Z,505.00
2023-01-26T02:16:44.730Z,508.00
2023-01-26T02:17:44.807Z,507.00
2023-01-26T02:18:44.839Z,506.00
2023-01-26T02:19:44.881Z,505.00
2023-01-26T02:20:44.957Z,508.00
2023-01-26T02:21:45.006Z,505.00
2023-01-26T02:22:45.126Z,508.00
2023-01-26T02:23:45.088Z,508.00
2023-01-26T02:24:45.156Z,507.00
2023-01-26T02:25:45.194Z,506.00
2023-01-26T02:26:45.238Z,504.00
2023-01-26T02:27:45.288Z,510.00
2023-01-26T02:28:45.327Z,506.00
2023-01-26T02:29:45.379Z,504.00
2023-01-26T02:30:45.478Z,501.00
2023-01-26T02:31:46.024Z,508.00
2023-01-26T02:32:45.516Z,509.00
2023-01-26T02:33:45.556Z,508.00
2023-01-26T02:34:45.632Z,511.00
2023-01-26T02:35:45.663Z,512.00
2023-01-26T02:36:45.746Z,511.00
2023-01-26T02:37:45.775Z,508.00
2023-01-26T02:38:45.813Z,504.00
2023-01-26T02:39:45.854Z,507.00
2023-01-26T02:40:45.911Z,506.00
2023-01-26T02:41:45.943Z,508.00
2023-01-26T02:42:45.976Z,510.00
2023-01-26T02:43:46.030Z,510.00
2023-01-26T02:44:46.084Z,506.00
2023-01-26T02:45:46.138Z,509.00
2023-01-26T02:46:46.203Z,509.00
2023-01-26T02:47:46.229Z,507.00
2023-01-26T02:48:46.273Z,506.00
2023-01-26T02:49:46.338Z,509.00
2023-01-26T02:50:46.371Z,506.00
2023-01-26T02:51:46.421Z,505.00
2023-01-26T02:52:46.470Z,506.00
2023-01-26T02:53:47.505Z,504.00
2023-01-26T02:54:46.573Z,503.00
2023-01-26T02:55:46.620Z,508.00
2023-01-26T02:56:46.733Z,503.00
2023-01-26T02:57:46.778Z,501.00
2023-01-26T02:58:47.498Z,506.00
2023-01-26T02:59:46.802Z,507.00
2023-01-26T03:00:46.870Z,505.00
2023-01-26T03:01:46.922Z,506.00
2023-01-26T03:02:46.963Z,502.00
2023-01-26T03:03:47.000Z,506.00
2023-01-26T03:04:47.070Z,505.00
2023-01-26T03:05:47.116Z,504.00
2023-01-26T03:06:48.004Z,506.00
2023-01-26T03:07:47.169Z,505.00
2023-01-26T03:08:47.225Z,505.00
2023-01-26T03:09:47.261Z,502.00
2023-01-26T03:10:47.300Z,507.00
2023-01-26T03:11:47.326Z,508.00
2023-01-26T03:12:47.368Z,508.00
2023-01-26T03:13:47.416Z,501.00
2023-01-26T03:14:47.469Z,503.00
2023-01-26T03:15:47.537Z,500.00
2023-01-26T03:16:47.522Z,511.00
2023-01-26T03:17:47.526Z,509.00
2023-01-26T03:18:47.597Z,510.00
2023-01-26T03:19:47.624Z,508.00
2023-01-26T03:20:47.669Z,503.00
2023-01-26T03:21:47.723Z,502.00
2023-01-26T03:22:47.786Z,507.00
2023-01-26T03:23:47.853Z,500.00
2023-01-26T03:24:47.875Z,505.00
2023-01-26T03:25:47.994Z,509.00
2023-01-26T03:26:47.947Z,508.00
2023-01-26T03:27:47.986Z,500.00
2023-01-26T03:28:48.001Z,507.00
2023-01-26T03:29:48.028Z,511.00
2023-01-26T03:30:48.086Z,510.00
2023-01-26T03:31:48.067Z,503.00
2023-01-26T03:32:48.073Z,508.00
2023-01-26T03:33:48.077Z,510.00
2023-01-26T03:34:48.131Z,503.00
2023-01-26T03:35:48.154Z,508.00
2023-01-26T03:36:48.209Z,507.00
2023-01-26T03:37:48.267Z,506.00
2023-01-26T03:38:48.318Z,509.00
2023-01-26T03:39:48.380Z,508.00
2023-01-26T03:40:48.397Z,508.00
2023-01-26T03:41:48.479Z,512.00
2023-01-26T03:42:48.520Z,507.00
2023-01-26T03:43:48.571Z,507.00
2023-01-26T03:44:48.605Z,504.00
2023-01-26T03:45:49.500Z,502.00
2023-01-26T03:46:48.680Z,505.00
2023-01-26T03:47:48.660Z,509.00
2023-01-26T03:48:48.693Z,501.00
2023-01-26T03:49:48.715Z,507.00
2023-01-26T03:50:48.780Z,501.00
2023-01-26T03:51:48.796Z,503.00
2023-01-26T03:52:48.822Z,505.00
2023-01-26T03:53:48.846Z,508.00
2023-01-26T03:54:48.910Z,505.00
2023-01-26T03:55:48.902Z,509.00
2023-01-26T04:46:51.416Z,507.00
2023-01-26T04:47:51.476Z,508.00
2023-01-26T04:48:51.518Z,507.00
2023-01-26T04:49:51.552Z,505.00
2023-01-26T04:50:51.582Z,506.00
2023-01-26T04:51:51.640Z,507.00
2023-01-26T04:52:51.691Z,508.00
2023-01-26T04:53:51.737Z,505.00
2023-01-26T04:54:51.782Z,505.00
2023-01-26T04:55:51.825Z,509.00
2023-01-26T04:56:51.865Z,509.00
2023-01-26T04:57:51.911Z,505.00
2023-01-26T04:58:51.950Z,506.00
2023-01-26T04:59:52.987Z,506.00
2023-01-26T05:00:52.074Z,508.00
2023-01-26T05:01:52.077Z,508.00
2023-01-26T05:02:52.137Z,515.00
2023-01-26T05:03:52.199Z,503.00
2023-01-26T05:04:52.223Z,504.00
2023-01-26T05:05:52.267Z,510.00
2023-01-26T05:06:52.339Z,506.00
2023-01-26T05:07:52.379Z,510.00
2023-01-26T05:08:52.409Z,511.00
2023-01-26T05:09:52.456Z,507.00
2023-01-26T05:10:52.497Z,506.00
2023-01-26T05:11:52.556Z,509.00
2023-01-26T05:12:52.620Z,510.00
2023-01-26T05:13:52.654Z,508.00
2023-01-26T05:14:52.678Z,504.00
2023-01-26T05:15:52.704Z,509.00
2023-01-26T05:16:52.752Z,505.00
2023-01-26T05:17:52.817Z,512.00
2023-01-26T05:18:52.866Z,509.00
2023-01-26T05:19:52.911Z,513.00
2023-01-26T05:20:52.970Z,505.00
2023-01-26T05:21:53.013Z,507.00
2023-01-26T05:22:53.054Z,505.00
2023-01-26T05:23:53.132Z,508.00
2023-01-26T05:24:53.130Z,508.00
2023-01-26T05:25:53.162Z,510.00
2023-01-26T05:26:53.976Z,511.00
2023-01-26T05:27:53.233Z,506.00
2023-01-26T05:28:53.271Z,508.00
2023-01-26T05:29:53.995Z,506.00
2023-01-26T05:30:53.350Z,503.00
2023-01-26T05:31:53.436Z,511.00
2023-01-26T05:32:53.407Z,505.00
2023-01-26T05:33:53.431Z,506.00
2023-01-26T05:34:53.479Z,503.00
2023-01-26T05:35:53.487Z,507.00
2023-01-26T05:36:53.520Z,506.00
2023-01-26T05:37:53.550Z,507.00
2023-01-26T05:38:53.599Z,504.00
2023-01-26T05:39:53.586Z,512.00
2023-01-26T05:40:53.599Z,502.00
2023-01-26T05:41:53.627Z,503.00
2023-01-26T05:42:53.658Z,505.00
2023-01-26T05:43:53.696Z,502.00
2023-01-26T05:44:53.759Z,505.00
2023-01-26T05:45:53.876Z,503.00
2023-01-26T05:46:53.861Z,513.00
2023-01-26T05:47:53.899Z,509.00
2023-01-26T05:48:53.914Z,504.00
2023-01-26T05:49:53.934Z,509.00
2023-01-26T05:50:53.966Z,505.00
2023-01-26T05:51:54.981Z,506.00
2023-01-26T05:52:54.012Z,504.00
2023-01-26T05:53:54.135Z,508.00
2023-01-26T05:54:54.076Z,512.00
2023-01-26T05:55:55.024Z,507.00
2023-01-26T05:56:54.174Z,506.00
2023-01-26T05:57:54.212Z,511.00
2023-01-26T05:58:54.971Z,505.00
2023-01-26T05:59:54.297Z,513.00
2023-01-26T06:00:54.359Z,514.00
2023-01-26T06:01:54.456Z,511.00
2023-01-26T06:02:54.473Z,506.00
2023-01-26T06:03:54.562Z,513.00
2023-01-26T06:04:54.589Z,512.00
2023-01-26T06:05:54.640Z,514.00
2023-01-26T07:22:57.548Z,639.00
2023-01-26T07:23:58.450Z,649.00
2023-01-26T07:24:57.554Z,655.00
2023-01-26T07:25:57.580Z,654.00
2023-01-26T07:26:57.578Z,657.00
2023-01-26T07:27:57.581Z,656.00
2023-01-26T07:28:57.571Z,663.00
2023-01-26T07:29:57.568Z,670.00
2023-01-26T07:30:57.595Z,668.00
2023-01-26T07:31:57.737Z,678.00
2023-01-26T07:32:57.622Z,672.00
2023-01-26T07:33:57.732Z,685.00
2023-01-26T07:34:57.726Z,681.00
2023-01-26T07:35:57.775Z,695.00
2023-01-26T07:36:57.823Z,681.00
2023-01-26T07:37:57.872Z,694.00
2023-01-26T07:38:57.919Z,687.00
2023-01-26T07:39:57.975Z,673.00
2023-01-26T07:40:58.005Z,677.00
2023-01-26T07:41:58.066Z,678.00
2023-01-26T07:42:58.132Z,673.00
2023-01-26T07:43:58.216Z,664.00
2023-01-26T07:44:58.225Z,667.00
2023-01-26T07:45:58.268Z,672.00
2023-01-26T07:46:58.377Z,662.00
2023-01-26T07:47:58.406Z,661.00
2023-01-26T07:48:58.425Z,657.00
2023-01-26T07:49:58.488Z,660.00
2023-01-26T07:50:58.539Z,652.00
2023-01-26T07:51:58.592Z,660.00
2023-01-26T07:52:58.631Z,653.00
2023-01-26T07:53:58.679Z,650.00
2023-01-26T07:54:58.715Z,656.00
2023-01-26T07:55:58.755Z,674.00
2023-01-26T07:56:58.796Z,675.00
2023-01-26T07:57:58.832Z,666.00
2023-01-26T07:58:58.884Z,659.00
2023-01-26T07:59:58.932Z,655.00
2023-01-26T08:00:58.957Z,654.00
2023-01-26T08:01:59.015Z,653.00
2023-01-26T08:02:59.076Z,652.00
2023-01-26T08:03:59.183Z,646.00
2023-01-26T08:04:59.118Z,651.00
2023-01-26T08:05:59.159Z,647.00
2023-01-26T08:06:59.215Z,652.00
2023-01-26T08:07:59.245Z,651.00
2023-01-26T09:19:01.500Z,730.00
2023-01-26T09:40:01.454Z,752.00
2023-01-26T10:00:02.949Z,721.00
2023-01-26T10:02:01.452Z,613.00
2023-01-26T10:04:01.458Z,613.00
2023-01-26T10:13:03.441Z,647.00
2023-01-26T10:15:01.665Z,649.00
2023-01-26T11:06:01.430Z,641.00
2023-01-26T11:07:01.478Z,640.00
2023-01-26T11:08:01.550Z,635.00
2023-01-26T11:09:01.563Z,638.00
2023-01-26T11:10:01.613Z,632.00
2023-01-26T11:11:01.641Z,642.00
2023-01-26T11:12:02.460Z,645.00
2023-01-26T11:13:01.773Z,631.00
2023-01-26T11:14:01.732Z,628.00
2023-01-26T11:15:01.789Z,629.00
2023-01-26T11:16:01.869Z,636.00
2023-01-26T11:17:01.886Z,621.00
2023-01-26T11:18:01.927Z,632.00
2023-01-26T11:19:01.976Z,629.00
2023-01-26T11:20:02.031Z,628.00
2023-01-26T11:21:02.081Z,630.00
2023-01-26T11:22:02.118Z,634.00
2023-01-26T11:23:02.183Z,636.00
2023-01-26T11:24:02.235Z,625.00
2023-01-26T11:25:02.240Z,633.00
2023-01-26T11:26:02.279Z,632.00
2023-01-26T11:27:02.330Z,631.00
2023-01-26T11:28:02.368Z,623.00
2023-01-26T11:29:02.404Z,624.00
2023-01-26T11:30:02.453Z,625.00
2023-01-26T11:31:02.535Z,626.00
2023-01-26T11:32:02.526Z,627.00
2023-01-26T11:33:02.570Z,628.00
2023-01-26T11:34:02.605Z,629.00
2023-01-26T11:35:02.651Z,621.00
2023-01-26T11:36:02.693Z,633.00
2023-01-26T11:37:02.729Z,622.00
2023-01-26T11:38:02.778Z,628.00
2023-01-26T11:39:02.821Z,625.00
2023-01-26T11:40:02.874Z,631.00
2023-01-26T11:41:03.841Z,631.00
2023-01-26T11:42:02.816Z,626.00
2023-01-26T11:43:02.798Z,626.00
2023-01-26T11:44:02.799Z,625.00
2023-01-26T11:45:02.774Z,625.00
2023-01-26T11:46:02.852Z,631.00
2023-01-26T11:47:02.773Z,637.00
2023-01-26T11:48:02.734Z,636.00
2023-01-26T11:49:02.725Z,638.00
2023-01-26T11:50:02.720Z,629.00
2023-01-26T11:51:04.756Z,634.00
2023-01-26T11:52:02.717Z,634.00
2023-01-26T11:53:02.701Z,637.00
2023-01-26T11:54:02.691Z,636.00
2023-01-26T11:55:02.672Z,638.00
2023-01-26T11:56:02.698Z,637.00
2023-01-26T11:57:02.634Z,635.00
2023-01-26T11:58:02.622Z,630.00
2023-01-26T11:59:02.610Z,638.00
2023-01-26T12:00:02.609Z,639.00
2023-01-26T12:01:02.574Z,637.00
2023-01-26T12:02:02.589Z,633.00
2023-01-26T12:03:02.585Z,635.00
2023-01-26T12:04:02.535Z,637.00
2023-01-26T12:05:03.439Z,640.00
2023-01-26T12:06:02.495Z,630.00
2023-01-26T12:07:02.472Z,635.00
2023-01-26T12:08:02.459Z,631.00
2023-01-26T12:09:02.441Z,632.00
2023-01-26T12:10:03.358Z,631.00
2023-01-26T12:11:02.401Z,633.00
2023-01-26T12:12:02.374Z,647.00
2023-01-26T12:13:02.365Z,643.00
2023-01-26T12:14:02.352Z,637.00
2023-01-26T12:15:04.303Z,637.00
2023-01-26T12:17:17.124Z,639.00
2023-01-26T12:19:10.653Z,640.00
2023-01-26T12:21:02.217Z,641.00
2023-01-26T12:26:02.134Z,663.00
2023-01-26T12:29:02.125Z,666.00
2023-01-26T12:30:02.052Z,663.00
2023-01-26T12:31:02.094Z,663.00
2023-01-26T12:32:02.015Z,669.00
2023-01-26T12:33:01.972Z,670.00
2023-01-26T12:34:02.000Z,667.00
2023-01-26T12:35:02.043Z,679.00
2023-01-26T12:36:02.076Z,680.00
2023-01-26T12:37:02.081Z,663.00
2023-01-26T12:38:16.924Z,722.00
2023-01-26T12:40:02.084Z,726.00
2023-01-26T12:41:02.073Z,735.00
2023-01-26T12:42:02.047Z,744.00
2023-01-26T12:43:02.020Z,787.00
2023-01-26T12:44:01.993Z,758.00
2023-01-26T12:45:02.222Z,774.00
2023-01-26T12:52:01.957Z,774.00
2023-01-26T12:53:01.952Z,804.00
2023-01-26T12:54:01.989Z,835.00
2023-01-26T12:55:02.443Z,850.00
2023-01-26T12:56:02.043Z,897.00
2023-01-26T12:57:02.075Z,919.00
2023-01-26T12:58:02.115Z,978.00
2023-01-26T12:59:02.120Z,961.00
2023-01-26T13:00:02.166Z,943.00
2023-01-26T13:01:02.289Z,879.00
2023-01-26T13:02:02.205Z,891.00
2023-01-26T13:03:02.288Z,894.00
2023-01-26T13:04:02.264Z,943.00
2023-01-26T13:05:02.279Z,932.00
2023-01-26T13:06:02.847Z,948.00
2023-01-26T13:07:02.348Z,905.00
2023-01-26T13:08:02.377Z,938.00
2023-01-26T13:09:02.414Z,916.00
2023-01-26T13:10:02.465Z,924.00
2023-01-26T13:11:02.475Z,916.00
2023-01-26T13:12:02.565Z,927.00
2023-01-26T13:13:02.567Z,910.00
2023-01-26T13:14:02.533Z,912.00
2023-01-26T13:15:03.119Z,922.00
2023-01-26T13:16:02.604Z,919.00
2023-01-26T13:17:02.609Z,908.00
2023-01-26T13:18:02.636Z,902.00
2023-01-26T13:19:02.661Z,906.00
2023-01-26T13:20:02.673Z,906.00
2023-01-26T13:21:02.692Z,902.00
2023-01-26T13:22:02.723Z,912.00
2023-01-26T13:23:02.741Z,917.00
2023-01-26T13:24:02.811Z,902.00
2023-01-26T13:25:02.797Z,894.00
2023-01-26T13:26:09.907Z,906.00
2023-01-26T13:27:03.883Z,907.00
2023-01-26T13:28:02.871Z,907.00
2023-01-26T13:29:02.923Z,908.00
2023-01-26T13:30:02.887Z,901.00
2023-01-26T13:31:03.042Z,901.00
2023-01-26T13:32:02.881Z,900.00
2023-01-26T13:33:02.869Z,900.00
2023-01-26T13:34:02.841Z,894.00
2023-01-26T13:35:05.596Z,889.00
2023-01-26T13:36:02.805Z,904.00
2023-01-26T13:37:02.809Z,899.00
2023-01-26T13:38:02.768Z,883.00
2023-01-26T13:39:02.751Z,885.00
2023-01-26T13:40:02.766Z,882.00
2023-01-26T13:41:02.741Z,878.00
2023-01-26T13:42:02.692Z,875.00
2023-01-26T13:43:02.677Z,862.00
2023-01-26T13:44:02.690Z,871.00
2023-01-26T13:45:02.635Z,869.00
2023-01-26T13:46:02.699Z,866.00
2023-01-26T13:47:02.600Z,864.00
2023-01-26T13:48:02.592Z,872.00
2023-01-26T13:49:02.579Z,858.00
2023-01-26T13:50:02.552Z,859.00
2023-01-26T13:51:02.524Z,862.00
2023-01-26T13:52:02.511Z,877.00
2023-01-26T13:53:02.481Z,854.00
2023-01-26T13:54:02.487Z,866.00
2023-01-26T13:55:02.443Z,845.00
2023-01-26T13:56:02.475Z,831.00
2023-01-26T13:57:02.414Z,834.00
2023-01-26T13:58:02.423Z,848.00
2023-01-26T13:59:02.376Z,853.00
2023-01-26T14:00:02.355Z,830.00
2023-01-26T14:01:02.334Z,856.00
2023-01-26T14:02:02.331Z,850.00
2023-01-26T14:03:02.328Z,860.00
2023-01-26T14:04:02.266Z,845.00
2023-01-26T14:05:02.243Z,838.00
2023-01-26T14:06:02.231Z,842.00
2023-01-26T14:07:02.242Z,854.00
2023-01-26T14:08:02.173Z,868.00
2023-01-26T14:09:02.144Z,869.00
2023-01-26T14:10:02.464Z,871.00
2023-01-26T14:11:02.124Z,862.00
2023-01-26T14:12:02.078Z,846.00
2023-01-26T14:13:02.071Z,829.00
2023-01-26T14:14:02.071Z,829.00
2023-01-26T14:20:01.951Z,823.00
2023-01-26T14:23:01.946Z,854.00
2023-01-26T14:24:02.442Z,858.00
2023-01-26T14:25:01.860Z,861.00
2023-01-26T14:26:01.838Z,847.00
2023-01-26T14:27:01.811Z,855.00
2023-01-26T14:28:01.824Z,852.00
2023-01-26T14:29:01.787Z,858.00
2023-01-26T14:30:01.765Z,859.00
2023-01-26T14:31:01.841Z,840.00
2023-01-26T14:32:01.733Z,845.00
2023-01-26T14:33:01.706Z,825.00
2023-01-26T14:34:01.685Z,813.00
2023-01-26T14:35:01.729Z,810.00
2023-01-26T14:36:01.762Z,809.00
2023-01-26T14:37:01.764Z,806.00
2023-01-26T14:38:01.793Z,802.00
2023-01-26T14:39:01.830Z,796.00
2023-01-26T14:40:01.857Z,804.00
2023-01-26T14:41:01.900Z,795.00
2023-01-26T14:42:01.940Z,772.00
2023-01-26T14:43:01.970Z,785.00
2023-01-26T14:44:02.008Z,790.00
2023-01-26T14:45:02.046Z,789.00
2023-01-26T14:46:02.080Z,786.00
2023-01-26T14:47:02.123Z,784.00
2023-01-26T14:48:02.141Z,790.00
2023-01-26T14:49:02.167Z,780.00
2023-01-26T14:50:02.233Z,765.00
2023-01-26T14:51:02.245Z,768.00
2023-01-26T14:52:02.335Z,756.00
2023-01-26T14:53:02.324Z,750.00
2023-01-26T14:54:02.358Z,779.00
2023-01-26T14:55:02.385Z,762.00
2023-01-26T14:56:02.455Z,736.00
2023-01-26T14:57:02.486Z,785.00
2023-01-26T14:58:02.574Z,806.00
2023-01-26T14:59:02.571Z,782.00
2023-01-26T15:00:02.651Z,812.00
2023-01-26T15:01:02.685Z,837.00
2023-01-26T15:02:02.746Z,899.00
2023-01-26T15:03:02.728Z,934.00
2023-01-26T15:04:02.769Z,1011.00
2023-01-26T15:05:02.871Z,1000.00
2023-01-26T15:06:02.855Z,1019.00
2023-01-26T15:07:02.909Z,1021.00
2023-01-26T15:08:02.944Z,1026.00
2023-01-26T15:09:02.987Z,1019.00
2023-01-26T15:10:03.096Z,1008.00
2023-01-26T15:11:03.067Z,982.00
2023-01-26T15:12:03.103Z,957.00
2023-01-26T15:13:03.225Z,970.00
2023-01-26T23:44:07.133Z,509.00
2023-01-26T23:46:07.144Z,502.00
2023-01-26T23:47:07.232Z,505.00
2023-01-26T23:58:07.199Z,509.00
